Time;durP1;ratioP1;P1;durP2;ratioP2;P2;SDS_P1;SDS_P2;PMS_P1;PMS_P2;Temp;Humidity;BMP_temperature;BMP_pressure;BME280_temperature;BME280_humidity;BME280_pressure;Samples;Min_cycle;Max_cycle;Signal;HPM_P1;HPM_P2
2022/07/03 00:01:25;;;;;;;7.87;5.43;;;;;;;;;;4291385;33;20119;-76
2022/07/03 00:03:52;;;;;;;8.52;5.30;;;;;;;;;;4291228;33;20143;-76
2022/07/03 00:35:24;;;;;;;7.68;4.85;;;;;;;;;;4386460;28;20111;-68
2022/07/03 00:37:50;;;;;;;7.37;4.45;;;;;;;;;;4302840;33;20134;-69
2022/07/03 00:40:16;;;;;;;9.68;5.47;;;;;;;;;;4291485;33;20153;-75
2022/07/03 00:42:44;;;;;;;6.90;5.07;;;;;;;;;;4289871;33;20230;-75
2022/07/03 00:45:12;;;;;;;6.22;5.00;;;;;;;;;;4289247;33;20116;-69
2022/07/03 00:47:39;;;;;;;8.15;4.95;;;;;;;;;;4276086;33;20542;-69
2022/07/03 00:50:07;;;;;;;6.15;4.60;;;;;;;;;;4276004;33;20114;-69
2022/07/03 00:52:34;;;;;;;7.30;4.80;;;;;;;;;;4289457;33;20252;-68
2022/07/03 00:55:00;;;;;;;8.65;4.28;;;;;;;;;;4275805;33;20195;-68
2022/07/03 00:57:28;;;;;;;6.03;4.60;;;;;;;;;;4289254;33;20535;-68
2022/07/03 00:59:55;;;;;;;5.97;4.40;;;;;;;;;;4289272;33;20095;-68
2022/07/03 01:02:39;;;;;;;5.00;4.10;;;;;;;;;;4289167;33;20112;-69
2022/07/03 01:05:16;;;;;;;8.40;4.80;;;;;;;;;;4289304;33;20486;-68
2022/07/03 01:07:56;;;;;;;7.45;4.30;;;;;;;;;;4275997;33;20106;-68
2022/07/03 01:10:43;;;;;;;7.15;4.30;;;;;;;;;;4289273;33;20451;-69
2022/07/03 01:13:25;;;;;;;6.32;3.97;;;;;;;;;;4275675;33;20111;-69
2022/07/03 01:16:07;;;;;;;6.55;4.20;;;;;;;;;;4289324;33;20118;-69
2022/07/03 01:18:44;;;;;;;7.43;4.20;;;;;;;;;;4288818;33;20527;-69
2022/07/03 01:21:24;;;;;;;7.25;4.03;;;;;;;;;;4289049;33;20218;-68
2022/07/03 01:23:57;;;;;;;7.70;4.07;;;;;;;;;;4275930;33;20551;-68
2022/07/03 01:26:25;;;;;;;6.50;4.90;;;;;;;;;;4289177;33;20291;-69
2022/07/03 01:28:51;;;;;;;7.32;4.28;;;;;;;;;;4275544;33;20112;-68
2022/07/03 01:31:20;;;;;;;5.68;4.05;;;;;;;;;;4275556;33;20202;-69
2022/07/03 01:33:47;;;;;;;5.10;3.90;;;;;;;;;;4288680;33;20103;-68
2022/07/03 01:36:15;;;;;;;6.50;4.68;;;;;;;;;;4275792;33;20111;-68
2022/07/03 01:38:42;;;;;;;6.57;4.32;;;;;;;;;;4288693;33;20159;-68
2022/07/03 01:41:10;;;;;;;5.07;4.28;;;;;;;;;;4275560;33;20110;-69
2022/07/03 01:43:40;;;;;;;6.00;4.72;;;;;;;;;;4288599;33;20123;-69
2022/07/03 01:46:06;;;;;;;6.22;4.55;;;;;;;;;;4275385;33;20226;-68
2022/07/03 01:48:33;;;;;;;5.82;4.47;;;;;;;;;;4289068;33;20639;-69
2022/07/03 01:51:00;;;;;;;6.85;4.07;;;;;;;;;;4277717;33;20175;-68
2022/07/03 01:53:28;;;;;;;4.85;3.92;;;;;;;;;;4277279;33;20185;-68
2022/07/03 01:55:59;;;;;;;6.85;4.47;;;;;;;;;;4289630;33;20108;-68
2022/07/03 01:58:25;;;;;;;6.10;4.10;;;;;;;;;;4265297;33;20222;-68
2022/07/03 02:01:01;;;;;;;6.03;3.58;;;;;;;;;;4290900;33;20111;-69
2022/07/03 02:03:32;;;;;;;6.18;4.37;;;;;;;;;;4290974;33;20112;-68
2022/07/03 02:06:39;;;;;;;4.80;3.87;;;;;;;;;;4290864;33;20122;-68
2022/07/03 02:09:08;;;;;;;7.37;4.22;;;;;;;;;;4219725;33;20121;-68
2022/07/03 02:11:43;;;;;;;6.53;3.92;;;;;;;;;;4268931;33;20115;-69
2022/07/03 02:14:23;;;;;;;6.07;3.97;;;;;;;;;;4290731;33;20111;-68
2022/07/03 02:17:01;;;;;;;7.00;3.95;;;;;;;;;;4277444;33;20092;-68
2022/07/03 02:19:54;;;;;;;5.20;3.80;;;;;;;;;;4290497;33;20112;-68
2022/07/03 02:22:33;;;;;;;6.95;4.20;;;;;;;;;;4288401;33;20504;-68
2022/07/03 02:25:08;;;;;;;4.53;4.10;;;;;;;;;;4277554;33;20142;-68
2022/07/03 02:27:44;;;;;;;4.40;4.00;;;;;;;;;;4290690;33;20427;-68
2022/07/03 02:30:11;;;;;;;9.75;4.22;;;;;;;;;;4277505;33;20099;-68
2022/07/03 02:32:41;;;;;;;9.45;6.43;;;;;;;;;;4290593;33;20088;-68
2022/07/03 02:35:11;;;;;;;4.65;4.12;;;;;;;;;;4277101;33;20482;-69
2022/07/03 02:38:01;;;;;;;10.18;4.75;;;;;;;;;;4290612;33;20572;-68
2022/07/03 02:40:48;;;;;;;6.90;4.18;;;;;;;;;;4277245;33;20108;-69
2022/07/03 02:43:38;;;;;;;6.12;4.03;;;;;;;;;;4276983;33;20194;-69
2022/07/03 02:46:49;;;;;;;7.03;4.10;;;;;;;;;;4290377;33;20127;-69
2022/07/03 02:49:27;;;;;;;5.07;3.97;;;;;;;;;;4290463;33;20110;-69
2022/07/03 02:52:42;;;;;;;6.82;5.10;;;;;;;;;;4277371;33;20495;-69
2022/07/03 02:55:11;;;;;;;7.78;5.35;;;;;;;;;;4250960;33;20212;-69
2022/07/03 02:57:39;;;;;;;9.00;4.50;;;;;;;;;;4290413;33;20123;-69
2022/07/03 03:00:06;;;;;;;6.05;4.07;;;;;;;;;;4289299;33;20204;-69
2022/07/03 03:02:32;;;;;;;7.22;4.65;;;;;;;;;;4290367;33;20112;-69
2022/07/03 03:05:03;;;;;;;13.07;5.62;;;;;;;;;;4290604;33;20503;-69
2022/07/03 03:08:13;;;;;;;7.32;4.50;;;;;;;;;;4290334;33;20110;-69
2022/07/03 03:10:40;;;;;;;14.25;4.80;;;;;;;;;;4290217;33;20115;-69
2022/07/03 03:13:07;;;;;;;6.05;4.50;;;;;;;;;;4277057;33;20105;-69
2022/07/03 03:15:34;;;;;;;7.05;5.35;;;;;;;;;;4277026;33;20494;-69
2022/07/03 03:18:07;;;;;;;7.22;4.25;;;;;;;;;;4276725;33;20111;-69
2022/07/03 03:20:37;;;;;;;9.38;4.50;;;;;;;;;;4277315;33;20127;-69
2022/07/03 03:23:24;;;;;;;8.85;5.10;;;;;;;;;;4290009;33;20107;-69
2022/07/03 03:25:53;;;;;;;8.13;4.75;;;;;;;;;;4290184;33;20111;-69
2022/07/03 03:28:20;;;;;;;4.90;4.40;;;;;;;;;;4276409;33;20519;-69
2022/07/03 03:30:46;;;;;;;6.32;4.65;;;;;;;;;;4276672;33;20112;-69
2022/07/03 03:33:12;;;;;;;8.98;4.15;;;;;;;;;;4290149;33;20184;-69
2022/07/03 03:35:39;;;;;;;7.05;4.72;;;;;;;;;;4289998;33;20539;-69
2022/07/03 03:38:05;;;;;;;5.37;4.53;;;;;;;;;;4276491;33;20091;-69
2022/07/03 03:40:33;;;;;;;6.32;4.62;;;;;;;;;;4276595;33;20108;-68
2022/07/03 03:43:00;;;;;;;9.18;4.80;;;;;;;;;;4290025;33;20499;-69
2022/07/03 03:45:26;;;;;;;5.97;4.50;;;;;;;;;;4289696;33;20198;-68
2022/07/03 03:47:52;;;;;;;6.95;4.53;;;;;;;;;;4276607;33;20194;-68
2022/07/03 03:50:18;;;;;;;5.57;4.72;;;;;;;;;;4289692;33;20131;-68
2022/07/03 03:52:44;;;;;;;5.53;4.95;;;;;;;;;;4289881;33;20116;-69
2022/07/03 03:55:10;;;;;;;5.65;4.57;;;;;;;;;;4289727;33;20218;-68
2022/07/03 03:57:37;;;;;;;6.55;4.87;;;;;;;;;;4276531;33;20147;-69
2022/07/03 04:00:06;;;;;;;7.43;5.47;;;;;;;;;;4289761;33;20115;-68
2022/07/03 04:02:32;;;;;;;6.75;5.43;;;;;;;;;;4276493;33;20090;-68
2022/07/03 04:04:58;;;;;;;5.40;4.90;;;;;;;;;;4289662;33;20115;-68
2022/07/03 04:07:24;;;;;;;10.25;5.05;;;;;;;;;;4289689;33;20226;-68
2022/07/03 04:09:50;;;;;;;5.90;4.80;;;;;;;;;;4289671;33;20099;-68
2022/07/03 04:12:16;;;;;;;7.30;4.65;;;;;;;;;;4289327;33;20123;-68
2022/07/03 04:14:42;;;;;;;4.35;3.90;;;;;;;;;;4289692;33;20518;-68
2022/07/03 04:17:08;;;;;;;5.15;4.65;;;;;;;;;;4289700;33;20131;-68
2022/07/03 04:19:34;;;;;;;7.40;4.70;;;;;;;;;;4289836;33;20096;-69
2022/07/03 04:22:01;;;;;;;8.27;5.05;;;;;;;;;;4289678;33;20622;-69
2022/07/03 04:24:27;;;;;;;6.37;4.90;;;;;;;;;;4289794;33;20150;-68
2022/07/03 04:26:53;;;;;;;9.02;5.10;;;;;;;;;;4289804;33;20527;-69
2022/07/03 04:29:19;;;;;;;8.32;4.90;;;;;;;;;;4289692;33;20226;-69
2022/07/03 04:31:44;;;;;;;7.75;4.97;;;;;;;;;;4276164;33;20112;-68
2022/07/03 04:34:12;;;;;;;11.10;4.85;;;;;;;;;;4289498;33;20119;-69
2022/07/03 04:36:38;;;;;;;9.57;5.15;;;;;;;;;;4276510;33;20104;-69
2022/07/03 04:39:04;;;;;;;5.78;4.85;;;;;;;;;;4275994;33;20122;-68
2022/07/03 04:41:30;;;;;;;5.60;4.35;;;;;;;;;;4289479;33;20127;-69
2022/07/03 04:43:56;;;;;;;4.97;4.22;;;;;;;;;;4275966;33;20115;-68
2022/07/03 04:46:23;;;;;;;7.47;4.60;;;;;;;;;;4289288;33;20225;-68
2022/07/03 04:48:49;;;;;;;6.90;4.40;;;;;;;;;;4289326;33;20101;-68
2022/07/03 04:51:15;;;;;;;6.70;4.00;;;;;;;;;;4289325;33;20131;-68
2022/07/03 04:53:41;;;;;;;7.47;4.20;;;;;;;;;;4289412;33;20525;-69
2022/07/03 04:56:07;;;;;;;6.65;5.32;;;;;;;;;;4289233;33;20135;-69
2022/07/03 04:58:33;;;;;;;6.12;4.12;;;;;;;;;;4289235;33;20126;-69
2022/07/03 05:00:59;;;;;;;7.75;4.43;;;;;;;;;;4289302;33;20130;-69
2022/07/03 05:03:25;;;;;;;7.03;4.30;;;;;;;;;;4289073;33;20119;-69
2022/07/03 05:05:52;;;;;;;6.53;4.12;;;;;;;;;;4289177;33;20202;-69
2022/07/03 05:08:19;;;;;;;6.93;4.47;;;;;;;;;;4289023;33;20134;-69
2022/07/03 05:10:46;;;;;;;3.90;3.50;;;;;;;;;;4275809;33;20112;-69
2022/07/03 05:13:12;;;;;;;9.63;4.20;;;;;;;;;;4289032;33;20186;-69
2022/07/03 05:15:38;;;;;;;7.12;4.30;;;;;;;;;;4289137;33;20127;-70
2022/07/03 05:18:04;;;;;;;5.53;4.37;;;;;;;;;;4289132;33;20112;-69
2022/07/03 05:20:30;;;;;;;8.32;4.40;;;;;;;;;;4289040;33;20104;-69
2022/07/03 05:23:01;;;;;;;7.53;4.32;;;;;;;;;;4289129;33;20545;-71
2022/07/03 05:25:28;;;;;;;6.68;4.10;;;;;;;;;;4277888;33;20138;-69
2022/07/03 05:27:55;;;;;;;7.93;3.75;;;;;;;;;;4278038;33;20126;-69
2022/07/03 05:30:22;;;;;;;5.22;4.05;;;;;;;;;;4277614;33;20547;-69
2022/07/03 05:32:49;;;;;;;4.47;4.05;;;;;;;;;;4291107;33;20083;-69
2022/07/03 05:35:15;;;;;;;5.53;4.03;;;;;;;;;;4277497;33;20147;-68
2022/07/03 05:37:41;;;;;;;5.75;3.87;;;;;;;;;;4291010;33;20138;-69
2022/07/03 05:40:08;;;;;;;5.95;3.97;;;;;;;;;;4277580;33;20120;-69
2022/07/03 05:42:34;;;;;;;5.45;3.65;;;;;;;;;;4291001;33;20112;-69
2022/07/03 05:45:00;;;;;;;4.87;4.00;;;;;;;;;;4277428;33;20110;-69
2022/07/03 05:47:26;;;;;;;7.40;4.37;;;;;;;;;;4265699;33;20199;-69
2022/07/03 05:49:53;;;;;;;4.57;3.62;;;;;;;;;;4290982;33;20124;-69
2022/07/03 05:52:19;;;;;;;4.97;4.37;;;;;;;;;;4290805;33;20090;-69
2022/07/03 05:54:45;;;;;;;6.25;4.00;;;;;;;;;;4290776;33;20448;-69
2022/07/03 05:57:12;;;;;;;8.23;3.62;;;;;;;;;;4291025;33;20210;-70
2022/07/03 05:59:38;;;;;;;4.55;3.90;;;;;;;;;;4290666;33;20206;-69
2022/07/03 06:02:05;;;;;;;5.18;3.55;;;;;;;;;;4277494;33;20134;-70
2022/07/03 06:04:31;;;;;;;4.97;4.05;;;;;;;;;;4290979;33;20118;-69
2022/07/03 06:06:57;;;;;;;6.10;4.15;;;;;;;;;;4291042;33;20115;-69
2022/07/03 06:09:23;;;;;;;7.15;4.12;;;;;;;;;;4277312;33;20135;-69
2022/07/03 06:11:49;;;;;;;5.72;3.95;;;;;;;;;;4290805;33;20115;-70
2022/07/03 06:14:15;;;;;;;4.78;4.03;;;;;;;;;;4290707;33;20120;-70
2022/07/03 06:16:41;;;;;;;4.85;4.00;;;;;;;;;;4277602;33;20547;-70
2022/07/03 06:19:07;;;;;;;4.60;3.92;;;;;;;;;;4290426;33;20115;-69
2022/07/03 06:21:34;;;;;;;9.07;4.03;;;;;;;;;;4290676;33;20582;-70
2022/07/03 06:24:00;;;;;;;6.25;4.18;;;;;;;;;;4290824;33;20406;-69
2022/07/03 06:26:27;;;;;;;7.05;4.22;;;;;;;;;;4277157;33;20112;-70
2022/07/03 06:28:53;;;;;;;4.50;3.90;;;;;;;;;;4277230;33;20111;-70
2022/07/03 06:31:19;;;;;;;5.10;4.03;;;;;;;;;;4290599;33;20123;-69
2022/07/03 06:33:45;;;;;;;6.53;3.35;;;;;;;;;;4290386;33;20108;-70
2022/07/03 06:36:11;;;;;;;5.70;3.67;;;;;;;;;;4290438;33;20618;-70
2022/07/03 06:38:37;;;;;;;5.87;3.65;;;;;;;;;;4290300;33;20127;-70
2022/07/03 06:41:03;;;;;;;9.73;3.83;;;;;;;;;;4290434;33;20127;-70
2022/07/03 06:43:29;;;;;;;9.02;3.35;;;;;;;;;;4277279;33;20114;-70
2022/07/03 06:45:55;;;;;;;5.97;3.83;;;;;;;;;;4290381;33;20247;-70
2022/07/03 06:48:21;;;;;;;6.03;3.78;;;;;;;;;;4290235;33;20115;-70
2022/07/03 06:50:47;;;;;;;4.53;4.03;;;;;;;;;;4290291;33;20135;-70
2022/07/03 06:53:13;;;;;;;4.57;3.60;;;;;;;;;;4290197;33;20113;-70
2022/07/03 06:55:39;;;;;;;8.85;3.20;;;;;;;;;;4290320;33;20135;-70
2022/07/03 06:58:05;;;;;;;6.35;3.50;;;;;;;;;;4290317;33;20116;-69
2022/07/03 07:00:31;;;;;;;10.57;3.35;;;;;;;;;;4290440;33;20107;-70
2022/07/03 07:02:57;;;;;;;6.55;3.55;;;;;;;;;;4290305;33;20127;-70
2022/07/03 07:05:23;;;;;;;10.10;3.62;;;;;;;;;;4290095;33;20199;-70
2022/07/03 07:07:50;;;;;;;7.32;3.80;;;;;;;;;;4290204;33;20550;-70
2022/07/03 07:10:16;;;;;;;7.37;3.47;;;;;;;;;;4290201;33;20118;-69
2022/07/03 07:12:42;;;;;;;6.12;3.92;;;;;;;;;;4290208;33;20146;-70
2022/07/03 07:15:08;;;;;;;15.00;3.35;;;;;;;;;;4290197;33;20539;-69
2022/07/03 07:17:34;;;;;;;22.95;4.35;;;;;;;;;;4290172;33;20108;-69
2022/07/03 07:20:00;;;;;;;3.92;3.37;;;;;;;;;;4290199;33;20091;-70
2022/07/03 07:22:26;;;;;;;3.65;2.92;;;;;;;;;;4276992;33;20118;-70
2022/07/03 07:24:53;;;;;;;4.57;3.22;;;;;;;;;;4290271;33;20139;-69
2022/07/03 07:27:19;;;;;;;4.43;2.78;;;;;;;;;;4290075;33;20107;-70
2022/07/03 07:29:45;;;;;;;4.85;2.75;;;;;;;;;;4276943;33;20513;-69
2022/07/03 07:32:11;;;;;;;6.93;3.00;;;;;;;;;;4276654;33;20127;-69
2022/07/03 07:34:37;;;;;;;4.68;3.15;;;;;;;;;;4290123;33;20123;-70
2022/07/03 07:37:03;;;;;;;5.50;2.80;;;;;;;;;;4289963;33;20226;-70
2022/07/03 07:39:29;;;;;;;4.95;3.08;;;;;;;;;;4290186;33;20223;-70
2022/07/03 07:41:55;;;;;;;8.82;3.15;;;;;;;;;;4290273;33;20175;-70
2022/07/03 07:44:21;;;;;;;4.37;3.03;;;;;;;;;;4276647;33;20207;-69
2022/07/03 07:46:47;;;;;;;4.95;3.00;;;;;;;;;;4289423;33;20139;-70
2022/07/03 07:49:13;;;;;;;4.18;3.35;;;;;;;;;;4289849;33;20187;-69
2022/07/03 07:51:39;;;;;;;3.58;2.78;;;;;;;;;;4289893;33;20122;-69
2022/07/03 07:54:05;;;;;;;7.18;2.60;;;;;;;;;;4289750;33;20115;-69
2022/07/03 07:56:31;;;;;;;3.72;2.95;;;;;;;;;;4289797;33;20126;-69
2022/07/03 07:58:58;;;;;;;5.12;2.97;;;;;;;;;;4289726;33;20107;-69
2022/07/03 08:06:52;;;;;;;4.93;3.00;;;;;;;;;;4289772;33;20150;-69
2022/07/03 08:09:18;;;;;;;7.25;3.03;;;;;;;;;;4289774;33;20563;-70
2022/07/03 08:11:44;;;;;;;3.17;2.65;;;;;;;;;;4276309;33;20135;-71
2022/07/03 08:14:11;;;;;;;4.55;3.30;;;;;;;;;;4286355;33;20151;-69
2022/07/03 08:16:40;;;;;;;6.62;2.95;;;;;;;;;;4275258;33;20115;-70
2022/07/03 08:19:07;;;;;;;5.45;2.70;;;;;;;;;;4275104;33;20175;-72
2022/07/03 08:21:33;;;;;;;4.30;3.10;;;;;;;;;;4275384;33;20122;-72
2022/07/03 08:23:59;;;;;;;4.53;2.90;;;;;;;;;;4274560;33;20496;-67
2022/07/03 08:26:25;;;;;;;7.55;3.20;;;;;;;;;;4275263;33;20131;-65
2022/07/03 08:28:51;;;;;;;5.53;2.90;;;;;;;;;;4275129;33;20100;-67
2022/07/03 08:31:17;;;;;;;5.45;3.40;;;;;;;;;;4275204;33;20123;-64
2022/07/03 08:33:43;;;;;;;4.53;3.78;;;;;;;;;;4274976;33;20207;-68
2022/07/03 08:36:09;;;;;;;3.37;2.90;;;;;;;;;;4275160;33;20173;-69
2022/07/03 08:38:35;;;;;;;5.18;2.92;;;;;;;;;;4274813;33;20539;-63
2022/07/03 08:41:02;;;;;;;3.10;2.67;;;;;;;;;;4275049;33;20112;-65
2022/07/03 08:43:29;;;;;;;5.37;3.50;;;;;;;;;;4274968;33;20120;-65
2022/07/03 08:45:57;;;;;;;4.12;3.17;;;;;;;;;;4275062;33;20119;-70
2022/07/03 08:48:24;;;;;;;5.47;3.22;;;;;;;;;;4274796;33;20132;-71
2022/07/03 08:50:52;;;;;;;4.07;2.97;;;;;;;;;;4274259;33;20115;-71
2022/07/03 08:53:18;;;;;;;3.87;3.28;;;;;;;;;;4263760;33;20100;-69
2022/07/03 08:55:48;;;;;;;4.65;3.12;;;;;;;;;;4273550;33;20108;-70
2022/07/03 08:58:19;;;;;;;9.63;3.37;;;;;;;;;;4286071;33;20442;-69
2022/07/03 09:00:45;;;;;;;3.67;3.10;;;;;;;;;;4286914;33;20551;-70
2022/07/03 09:03:12;;;;;;;3.92;2.72;;;;;;;;;;4286809;33;20115;-68
2022/07/03 09:05:39;;;;;;;4.03;3.10;;;;;;;;;;4286924;33;20111;-68
2022/07/03 09:08:08;;;;;;;7.87;3.28;;;;;;;;;;4288912;33;20368;-68
2022/07/03 09:10:35;;;;;;;5.18;2.95;;;;;;;;;;4289041;33;20428;-68
2022/07/03 09:13:01;;;;;;;3.40;2.87;;;;;;;;;;4289349;33;20211;-70
2022/07/03 09:15:27;;;;;;;3.75;3.22;;;;;;;;;;4275529;33;20176;-69
2022/07/03 09:18:00;;;;;;;4.03;3.17;;;;;;;;;;4285189;33;20196;-69
2022/07/03 09:20:36;;;;;;;3.58;2.90;;;;;;;;;;4281942;33;20111;-72
2022/07/03 09:23:13;;;;;;;8.43;3.05;;;;;;;;;;4281466;33;20559;-69
2022/07/03 09:25:59;;;;;;;3.62;2.70;;;;;;;;;;4268709;33;20077;-69
2022/07/03 09:28:42;;;;;;;4.20;3.15;;;;;;;;;;4280705;33;20108;-69
2022/07/03 09:31:10;;;;;;;4.65;3.55;;;;;;;;;;4281124;33;20120;-69
2022/07/03 09:33:50;;;;;;;5.43;2.97;;;;;;;;;;4284314;33;20179;-69
2022/07/03 09:36:17;;;;;;;3.30;3.00;;;;;;;;;;4282404;33;20559;-69
2022/07/03 09:38:45;;;;;;;6.97;3.78;;;;;;;;;;4282327;33;20210;-69
2022/07/03 09:41:11;;;;;;;7.47;2.97;;;;;;;;;;4280462;33;20192;-69
2022/07/03 09:43:41;;;;;;;3.47;2.80;;;;;;;;;;4279505;33;20598;-69
2022/07/03 09:46:08;;;;;;;5.72;3.42;;;;;;;;;;4280930;33;20115;-69
2022/07/03 09:48:34;;;;;;;4.20;3.17;;;;;;;;;;4285015;33;20127;-69
2022/07/03 09:51:10;;;;;;;3.78;3.37;;;;;;;;;;4283109;33;20103;-69
2022/07/03 09:53:55;;;;;;;3.67;3.00;;;;;;;;;;4280789;33;20127;-69
2022/07/03 09:56:23;;;;;;;4.93;3.10;;;;;;;;;;4281150;33;20123;-69
2022/07/03 09:59:07;;;;;;;6.03;3.35;;;;;;;;;;4266611;33;20103;-68
2022/07/03 10:01:34;;;;;;;2.92;2.62;;;;;;;;;;4280521;33;20191;-68
2022/07/03 10:04:20;;;;;;;4.85;3.25;;;;;;;;;;4279340;33;20108;-69
2022/07/03 10:06:56;;;;;;;3.72;3.10;;;;;;;;;;4279780;33;20114;-69
2022/07/03 10:09:28;;;;;;;5.07;2.90;;;;;;;;;;4279535;33;20207;-69
2022/07/03 10:11:55;;;;;;;5.15;2.83;;;;;;;;;;4281944;33;20447;-69
2022/07/03 10:14:23;;;;;;;8.07;2.90;;;;;;;;;;4283101;33;20219;-68
2022/07/03 10:16:50;;;;;;;4.37;3.17;;;;;;;;;;4283566;33;20119;-67
2022/07/03 10:19:25;;;;;;;4.65;2.97;;;;;;;;;;4285594;33;20558;-68
2022/07/03 10:21:56;;;;;;;5.03;2.92;;;;;;;;;;4282793;33;20107;-70
2022/07/03 10:24:25;;;;;;;3.80;3.40;;;;;;;;;;4281457;33;20516;-66
2022/07/03 10:26:52;;;;;;;4.28;2.92;;;;;;;;;;4282214;33;20521;-69
2022/07/03 10:29:20;;;;;;;5.05;2.95;;;;;;;;;;4282819;33;20123;-68
2022/07/03 10:31:47;;;;;;;3.72;3.35;;;;;;;;;;4281771;33;20124;-70
2022/07/03 10:34:17;;;;;;;8.93;3.65;;;;;;;;;;4268551;33;20218;-70
2022/07/03 10:36:44;;;;;;;5.53;3.30;;;;;;;;;;4283103;33;20091;-71
2022/07/03 10:39:16;;;;;;;6.00;3.35;;;;;;;;;;4281936;33;20440;-68
2022/07/03 10:44:47;;;;;;;7.47;3.00;;;;;;;;;;4271434;33;20111;-69
2022/07/03 10:47:38;;;;;;;6.25;3.80;;;;;;;;;;4271602;33;20126;-69
2022/07/03 10:50:21;;;;;;;6.62;4.10;;;;;;;;;;4281301;33;20508;-68
2022/07/03 10:52:48;;;;;;;5.05;3.67;;;;;;;;;;4281867;33;20136;-69
2022/07/03 10:55:15;;;;;;;6.32;3.92;;;;;;;;;;4281687;33;20104;-69
2022/07/03 10:57:42;;;;;;;4.90;3.60;;;;;;;;;;4269254;33;20099;-71
2022/07/03 11:00:13;;;;;;;4.85;3.15;;;;;;;;;;4281639;33;20107;-69
2022/07/03 11:02:41;;;;;;;5.35;2.90;;;;;;;;;;4281581;33;20080;-70
2022/07/03 11:05:10;;;;;;;4.10;3.10;;;;;;;;;;4268792;33;20088;-69
2022/07/03 11:07:44;;;;;;;2.12;1.62;;;;;;;;;;4282533;33;20092;-72
2022/07/03 11:10:13;;;;;;;6.40;3.37;;;;;;;;;;4284269;33;20215;-70
2022/07/03 11:12:58;;;;;;;3.40;3.03;;;;;;;;;;4290262;33;20115;-70
2022/07/03 11:15:30;;;;;;;5.80;3.30;;;;;;;;;;4290154;33;20123;-70
2022/07/03 11:18:05;;;;;;;4.53;2.90;;;;;;;;;;4290085;33;20111;-69
2022/07/03 11:20:43;;;;;;;5.32;3.22;;;;;;;;;;4289858;33;20103;-69
2022/07/03 11:23:27;;;;;;;5.43;2.95;;;;;;;;;;4289706;33;20108;-70
2022/07/03 11:25:54;;;;;;;4.00;2.92;;;;;;;;;;4289973;33;20530;-70
2022/07/03 11:28:32;;;;;;;5.78;3.47;;;;;;;;;;4290051;33;20108;-70
2022/07/03 11:31:10;;;;;;;5.57;3.42;;;;;;;;;;4289905;33;20140;-69
2022/07/03 11:33:46;;;;;;;6.07;3.10;;;;;;;;;;4289357;33;20131;-72
2022/07/03 11:36:17;;;;;;;4.30;3.05;;;;;;;;;;4290174;33;20104;-70
2022/07/03 11:38:48;;;;;;;7.00;3.20;;;;;;;;;;4289757;33;20148;-70
2022/07/03 11:41:15;;;;;;;7.28;3.30;;;;;;;;;;4289711;33;20096;-69
2022/07/03 11:43:49;;;;;;;4.28;3.58;;;;;;;;;;4289794;33;20108;-69
2022/07/03 11:46:19;;;;;;;3.72;2.70;;;;;;;;;;4285576;33;20512;-71
2022/07/03 11:48:45;;;;;;;3.37;2.95;;;;;;;;;;4282260;33;20470;-73
2022/07/03 11:51:11;;;;;;;3.95;3.22;;;;;;;;;;4268864;33;20131;-70
2022/07/03 11:53:38;;;;;;;7.07;3.08;;;;;;;;;;4281751;33;20199;-70
2022/07/03 11:56:12;;;;;;;4.45;3.60;;;;;;;;;;4280517;33;20088;-70
2022/07/03 11:58:48;;;;;;;4.03;2.80;;;;;;;;;;4280816;33;20534;-70
2022/07/03 12:01:25;;;;;;;5.72;2.75;;;;;;;;;;4281328;33;20139;-69
2022/07/03 12:04:03;;;;;;;5.40;3.10;;;;;;;;;;4281327;33;20104;-68
2022/07/03 12:06:48;;;;;;;7.45;3.50;;;;;;;;;;4282545;33;20115;-69
2022/07/03 12:09:22;;;;;;;4.72;3.50;;;;;;;;;;4281363;33;20118;-72
2022/07/03 12:12:08;;;;;;;5.05;3.20;;;;;;;;;;4282318;33;20255;-71
2022/07/03 12:14:47;;;;;;;4.03;2.75;;;;;;;;;;4281667;33;20140;-71
2022/07/03 12:17:21;;;;;;;3.87;2.95;;;;;;;;;;4281600;33;20124;-68
2022/07/03 12:20:01;;;;;;;7.37;3.03;;;;;;;;;;4280912;33;20515;-68
2022/07/03 12:22:34;;;;;;;3.70;3.05;;;;;;;;;;4289313;33;20113;-66
2022/07/03 12:25:06;;;;;;;4.80;3.70;;;;;;;;;;4280874;33;20571;-71
2022/07/03 12:27:38;;;;;;;5.72;3.37;;;;;;;;;;4281225;33;20104;-71
2022/07/03 12:30:05;;;;;;;4.93;3.53;;;;;;;;;;4280711;33;20131;-69
2022/07/03 12:32:32;;;;;;;4.47;3.60;;;;;;;;;;4268063;33;20122;-69
2022/07/03 12:34:58;;;;;;;4.20;3.03;;;;;;;;;;4281406;33;20748;-70
2022/07/03 12:37:35;;;;;;;6.43;3.55;;;;;;;;;;4280372;33;20610;-69
2022/07/03 12:40:01;;;;;;;4.18;3.40;;;;;;;;;;4280320;33;20142;-71
2022/07/03 12:42:27;;;;;;;5.10;3.72;;;;;;;;;;4280679;33;20107;-71
2022/07/03 12:45:03;;;;;;;8.30;3.90;;;;;;;;;;4288654;33;20116;-68
2022/07/03 12:47:31;;;;;;;9.70;4.22;;;;;;;;;;4289307;33;20137;-75
2022/07/03 12:50:07;;;;;;;7.12;3.80;;;;;;;;;;4289328;33;20123;-70
2022/07/03 12:52:34;;;;;;;5.57;3.85;;;;;;;;;;4288985;33;20119;-70
2022/07/03 12:55:01;;;;;;;6.20;3.85;;;;;;;;;;4289121;33;20130;-75
2022/07/03 13:00:16;;;;;;;7.55;3.45;;;;;;;;;;4289011;33;20116;-71
2022/07/03 13:02:46;;;;;;;4.28;3.72;;;;;;;;;;4289182;33;20216;-68
2022/07/03 13:05:23;;;;;;;5.45;3.58;;;;;;;;;;4288606;33;20123;-75
2022/07/03 13:07:52;;;;;;;6.60;4.18;;;;;;;;;;4289195;33;20107;-74
2022/07/03 13:10:19;;;;;;;7.18;3.70;;;;;;;;;;4289105;33;20108;-68
2022/07/03 13:12:49;;;;;;;4.57;3.97;;;;;;;;;;4271960;33;20112;-72
2022/07/03 13:15:16;;;;;;;6.00;4.53;;;;;;;;;;4283985;33;20115;-69
2022/07/03 13:17:55;;;;;;;4.70;3.50;;;;;;;;;;4288956;33;20186;-68
2022/07/03 13:20:30;;;;;;;3.53;3.03;;;;;;;;;;4288882;33;20127;-68
2022/07/03 13:23:01;;;;;;;3.75;3.28;;;;;;;;;;4289244;33;20111;-68
2022/07/03 13:25:28;;;;;;;4.62;3.22;;;;;;;;;;4280805;33;20099;-69
2022/07/03 13:28:14;;;;;;;5.87;3.75;;;;;;;;;;4282808;33;20483;-72
2022/07/03 13:30:41;;;;;;;5.35;3.95;;;;;;;;;;4287482;33;20209;-71
2022/07/03 13:33:09;;;;;;;4.25;3.70;;;;;;;;;;4273438;33;20120;-71
2022/07/03 13:35:35;;;;;;;5.47;4.12;;;;;;;;;;4286686;33;20115;-72
2022/07/03 13:38:02;;;;;;;11.12;5.10;;;;;;;;;;4287316;33;20594;-72
2022/07/03 13:40:29;;;;;;;7.95;5.85;;;;;;;;;;4287534;33;20103;-72
2022/07/03 13:42:55;;;;;;;11.35;4.65;;;;;;;;;;4287811;33;20123;-72
2022/07/03 13:45:21;;;;;;;9.50;5.37;;;;;;;;;;4289036;33;20119;-72
2022/07/03 13:47:47;;;;;;;8.82;4.65;;;;;;;;;;4290831;33;20120;-72
2022/07/03 13:50:13;;;;;;;9.63;4.97;;;;;;;;;;4290853;33;20131;-72
2022/07/03 13:52:39;;;;;;;11.35;5.37;;;;;;;;;;4277616;33;20115;-71
2022/07/03 13:55:05;;;;;;;7.25;4.03;;;;;;;;;;4291078;33;20114;-72
2022/07/03 13:57:32;;;;;;;6.10;4.00;;;;;;;;;;4290892;33;20143;-71
2022/07/03 13:59:59;;;;;;;5.62;3.85;;;;;;;;;;4290648;33;20127;-72
2022/07/03 14:02:25;;;;;;;4.43;3.70;;;;;;;;;;4290718;33;20455;-72
2022/07/03 14:04:51;;;;;;;6.93;4.03;;;;;;;;;;4290785;33;20100;-72
2022/07/03 14:07:17;;;;;;;10.98;3.35;;;;;;;;;;4277659;33;20214;-72
2022/07/03 14:09:43;;;;;;;4.70;3.60;;;;;;;;;;4291109;33;20111;-73
2022/07/03 14:12:09;;;;;;;7.45;4.10;;;;;;;;;;4290662;33;20466;-73
2022/07/03 14:14:35;;;;;;;5.40;3.92;;;;;;;;;;4291156;33;20119;-74
2022/07/03 14:17:01;;;;;;;5.53;3.60;;;;;;;;;;4276495;33;20235;-72
2022/07/03 14:19:27;;;;;;;5.15;3.55;;;;;;;;;;4278176;33;20111;-73
2022/07/03 14:21:53;;;;;;;6.35;4.20;;;;;;;;;;4283705;33;20531;-71
2022/07/03 14:24:19;;;;;;;6.10;4.05;;;;;;;;;;4281378;33;20643;-74
2022/07/03 14:32:29;;;;;;;5.82;4.15;;;;;;;;;;4275320;33;20210;-71
2022/07/03 14:35:00;;;;;;;4.43;3.62;;;;;;;;;;4260975;33;20111;-71
2022/07/03 14:37:27;;;;;;;4.87;3.78;;;;;;;;;;4275800;33;20476;-72
2022/07/03 14:39:53;;;;;;;4.35;3.80;;;;;;;;;;4276081;33;20590;-70
2022/07/03 14:42:19;;;;;;;4.53;3.30;;;;;;;;;;4262918;33;20131;-70
2022/07/03 14:44:45;;;;;;;7.30;4.47;;;;;;;;;;4262824;33;20111;-72
2022/07/03 14:47:12;;;;;;;8.60;3.97;;;;;;;;;;4262788;33;20116;-73
2022/07/03 14:49:38;;;;;;;5.80;3.55;;;;;;;;;;4275958;33;20097;-72
2022/07/03 14:52:06;;;;;;;3.33;2.80;;;;;;;;;;4262961;33;20437;-71
2022/07/03 14:54:34;;;;;;;7.07;4.10;;;;;;;;;;4276050;33;20292;-72
2022/07/03 14:57:01;;;;;;;7.20;4.72;;;;;;;;;;4275075;33;20127;-72
2022/07/03 15:00:03;;;;;;;4.50;3.97;;;;;;;;;;4276165;33;20101;-72
2022/07/03 15:02:37;;;;;;;8.98;4.05;;;;;;;;;;4275975;33;20103;-73
2022/07/03 15:05:08;;;;;;;4.65;3.70;;;;;;;;;;4262682;33;20463;-70
2022/07/03 15:07:42;;;;;;;5.22;4.10;;;;;;;;;;4276019;33;20195;-71
2022/07/03 15:10:10;;;;;;;7.03;3.90;;;;;;;;;;4275929;33;20111;-72
2022/07/03 15:12:42;;;;;;;6.28;4.35;;;;;;;;;;4272225;33;20195;-76
2022/07/03 15:15:10;;;;;;;5.68;4.45;;;;;;;;;;4281831;33;20107;-78
2022/07/03 15:17:36;;;;;;;10.30;4.30;;;;;;;;;;4269275;33;20099;-74
2022/07/03 15:20:04;;;;;;;5.95;4.40;;;;;;;;;;4281486;33;20120;-76
2022/07/03 15:22:32;;;;;;;5.37;4.22;;;;;;;;;;4281491;33;20484;-77
2022/07/03 15:24:59;;;;;;;7.22;5.18;;;;;;;;;;4282689;33;20110;-76
2022/07/03 15:27:27;;;;;;;7.82;4.85;;;;;;;;;;4282058;33;20114;-77
2022/07/03 15:29:53;;;;;;;12.13;4.47;;;;;;;;;;4281408;33;20596;-76
2022/07/03 15:32:19;;;;;;;6.97;3.92;;;;;;;;;;4293305;33;20135;-72
2022/07/03 15:34:46;;;;;;;5.00;3.70;;;;;;;;;;4281995;33;20111;-78
2022/07/03 15:37:27;;;;;;;5.70;4.12;;;;;;;;;;4268021;33;20139;-73
2022/07/03 15:40:02;;;;;;;9.40;4.80;;;;;;;;;;4285207;33;20122;-67
2022/07/03 15:42:46;;;;;;;;;;;;;;;;;;4288639;33;20112;-69
2022/07/03 15:45:33;;;;;;;9.85;4.28;;;;;;;;;;4284020;33;20002;-74